Dades meteomassalio
Diari Summary for Marc 1, 2017 Units:  Metric    English   Both
« Previous Day
Next Day »
Diari Semanal Mensual Anual Personalitzat
  Maxima: Minima: Mijana:
Temperatura: 17.5 °C 6.0 °C 11.2 °C
Rosada: 7.0 °C 2.5 °C 4.9 °C
Humitat: 87 % 46 % 67 %
Velocitat del vent: 29.6 km/h 0.0 km/h 7.7 km/h
Racha vent: 29.6 km/h - -
Vent:- - SW
Pressio: 1021.2 hPa 1017.8 hPa -
Pluja: 0.0 mm    
Historical Graphs
 
 
Tabular Data for Marc 1, 2017
Time Temperature Dew Point Pressure Wind Wind Speed Wind Gust Humidity Rainfall Rate (Hourly) solar Conditions
00:01 8.6 °C 4.2 °C 1018.2 hPa West 16.7 km/h 16.7 km/h 74 % 0.0 mm 0.0 W/m2 CLR
00:06 8.6 °C 4.4 °C 1018.2 hPa WNW 17.7 km/h 17.7 km/h 75 % 0.0 mm 0.0 W/m2 CLR
00:11 8.6 °C 4.4 °C 1018.2 hPa West 18.5 km/h 18.5 km/h 75 % 0.0 mm 0.0 W/m2 CLR
00:16 8.6 °C 4.4 °C 1018.2 hPa West 19.3 km/h 19.3 km/h 75 % 0.0 mm 0.0 W/m2 CLR
00:21 8.5 °C 4.5 °C 1018.2 hPa NW 20.4 km/h 20.4 km/h 76 % 0.0 mm 0.0 W/m2 CLR
00:26 8.4 °C 4.4 °C 1018.2 hPa West 18.5 km/h 18.5 km/h 76 % 0.0 mm 0.0 W/m2 CLR
00:31 8.4 °C 4.6 °C 1018.2 hPa WNW 19.3 km/h 19.3 km/h 77 % 0.0 mm 0.0 W/m2 CLR
00:36 8.4 °C 4.8 °C 1018.5 hPa West 18.5 km/h 18.5 km/h 78 % 0.0 mm 0.0 W/m2 CLR
00:41 8.3 °C 4.7 °C 1018.5 hPa West 13.0 km/h 13.0 km/h 78 % 0.0 mm 0.0 W/m2 CLR
00:46 8.3 °C 4.7 °C 1018.2 hPa West 14.8 km/h 14.8 km/h 78 % 0.0 mm 0.0 W/m2 CLR
00:51 8.3 °C 4.7 °C 1018.2 hPa West 14.5 km/h 14.5 km/h 78 % 0.0 mm 0.0 W/m2 CLR
00:56 8.2 °C 4.6 °C 1018.5 hPa West 22.2 km/h 22.2 km/h 78 % 0.0 mm 0.0 W/m2 CLR
01:01 8.2 °C 4.7 °C 1018.5 hPa WNW 18.5 km/h 18.5 km/h 79 % 0.0 mm 0.0 W/m2 CLR
01:06 8.2 °C 4.7 °C 1018.8 hPa WSW 18.5 km/h 18.5 km/h 79 % 0.0 mm 0.0 W/m2 CLR
01:11 8.2 °C 4.7 °C 1018.5 hPa West 18.5 km/h 18.5 km/h 79 % 0.0 mm 0.0 W/m2 CLR
01:16 8.2 °C 4.6 °C 1018.5 hPa WNW 20.4 km/h 20.4 km/h 78 % 0.0 mm 0.0 W/m2 CLR
01:21 8.2 °C 4.6 °C 1018.5 hPa West 20.9 km/h 20.9 km/h 78 % 0.0 mm 0.0 W/m2 CLR
01:26 8.3 °C 4.7 °C 1018.5 hPa West 19.3 km/h 19.3 km/h 78 % 0.0 mm 0.0 W/m2 CLR
01:31 8.4 °C 4.6 °C 1018.5 hPa SW 18.5 km/h 18.5 km/h 77 % 0.0 mm 0.0 W/m2 CLR
01:32 8.4 °C 4.6 °C 1018.5 hPa WSW 18.5 km/h 18.5 km/h 77 % 0.0 mm 0.0 W/m2 CLR
01:37 8.4 °C 4.7 °C 1018.5 hPa West 22.2 km/h 22.2 km/h 77 % 0.0 mm 0.0 W/m2 CLR
01:42 8.4 °C 4.7 °C 1018.8 hPa West 18.5 km/h 18.5 km/h 77 % 0.0 mm 0.0 W/m2 CLR
01:47 8.5 °C 4.5 °C 1018.8 hPa West 22.2 km/h 22.2 km/h 76 % 0.0 mm 0.0 W/m2 CLR
01:52 8.5 °C 4.5 °C 1018.8 hPa West 14.8 km/h 14.8 km/h 76 % 0.0 mm 0.0 W/m2 CLR
01:57 8.6 °C 4.6 °C 1018.8 hPa WNW 25.9 km/h 25.9 km/h 76 % 0.0 mm 0.0 W/m2 CLR
02:02 8.5 °C 4.3 °C 1018.8 hPa West 20.9 km/h 20.9 km/h 75 % 0.0 mm 0.0 W/m2 CLR
02:07 8.6 °C 4.4 °C 1018.8 hPa WNW 14.8 km/h 14.8 km/h 75 % 0.0 mm 0.0 W/m2 CLR
02:12 8.6 °C 4.4 °C 1018.8 hPa West 14.8 km/h 14.8 km/h 75 % 0.0 mm 0.0 W/m2 CLR
02:17 8.6 °C 4.2 °C 1018.5 hPa WNW 17.7 km/h 17.9 km/h 74 % 0.0 mm 0.0 W/m2 CLR
02:22 8.6 °C 4.2 °C 1018.8 hPa West 18.5 km/h 18.5 km/h 74 % 0.0 mm 0.0 W/m2 CLR
02:27 8.6 °C 4.2 °C 1018.5 hPa WSW 18.5 km/h 18.5 km/h 74 % 0.0 mm 0.0 W/m2 CLR
02:32 8.6 °C 4.2 °C 1018.5 hPa West 20.4 km/h 20.4 km/h 74 % 0.0 mm 0.0 W/m2 CLR
02:37 8.7 °C 4.2 °C 1018.5 hPa West 18.5 km/h 18.5 km/h 73 % 0.0 mm 0.0 W/m2 CLR
02:42 8.6 °C 4.1 °C 1018.5 hPa WNW 24.1 km/h 24.1 km/h 73 % 0.0 mm 0.0 W/m2 CLR
02:47 8.6 °C 4.1 °C 1018.5 hPa West 24.1 km/h 24.1 km/h 73 % 0.0 mm 0.0 W/m2 CLR
02:52 8.6 °C 4.0 °C 1018.5 hPa West 22.5 km/h 22.5 km/h 73 % 0.0 mm 0.0 W/m2 CLR
02:57 8.6 °C 3.8 °C 1018.5 hPa West 25.9 km/h 25.9 km/h 72 % 0.0 mm 0.0 W/m2 CLR
03:02 8.5 °C 3.7 °C 1018.5 hPa WNW 14.5 km/h 14.5 km/h 72 % 0.0 mm 0.0 W/m2 CLR
03:07 8.4 °C 3.6 °C 1018.5 hPa West 13.0 km/h 13.0 km/h 72 % 0.0 mm 0.0 W/m2 CLR
03:12 8.3 °C 3.6 °C 1018.5 hPa West 20.4 km/h 20.4 km/h 72 % 0.0 mm 0.0 W/m2 CLR
03:17 8.3 °C 3.6 °C 1018.5 hPa West 13.0 km/h 13.0 km/h 72 % 0.0 mm 0.0 W/m2 CLR
03:22 8.3 °C 3.6 °C 1018.5 hPa WSW 14.8 km/h 14.8 km/h 72 % 0.0 mm 0.0 W/m2 CLR
03:27 8.2 °C 3.7 °C 1018.5 hPa WSW 18.5 km/h 18.5 km/h 73 % 0.0 mm 0.0 W/m2 CLR
03:32 8.1 °C 3.6 °C 1018.8 hPa West 14.8 km/h 14.8 km/h 73 % 0.0 mm 0.0 W/m2 CLR
03:37 8.1 °C 3.7 °C 1018.8 hPa West 13.0 km/h 13.0 km/h 74 % 0.0 mm 0.0 W/m2 CLR
03:42 8.1 °C 3.7 °C 1018.8 hPa West 11.3 km/h 11.3 km/h 74 % 0.0 mm 0.0 W/m2 CLR
03:47 8.1 °C 3.7 °C 1018.8 hPa West 14.8 km/h 14.8 km/h 74 % 0.0 mm 0.0 W/m2 CLR
03:52 8.1 °C 3.6 °C 1018.8 hPa WSW 13.0 km/h 13.0 km/h 73 % 0.0 mm 0.0 W/m2 CLR
03:57 8.1 °C 3.5 °C 1019.2 hPa Calm     73 % 0.0 mm 0.0 W/m2 CLR
04:02 7.9 °C 3.6 °C 1019.2 hPa SW 1.9 km/h   74 % 0.0 mm 0.0 W/m2 CLR
04:07 7.7 °C 3.4 °C 1019.2 hPa WSW 5.6 km/h 5.6 km/h 74 % 0.0 mm 0.0 W/m2 CLR
04:12 7.6 °C 3.4 °C 1019.2 hPa WSW 3.7 km/h 3.7 km/h 75 % 0.0 mm 0.0 W/m2 CLR
04:17 7.6 °C 3.4 °C 1019.2 hPa West 5.6 km/h 5.6 km/h 75 % 0.0 mm 0.0 W/m2 CLR
04:22 7.5 °C 3.3 °C 1019.2 hPa WSW 9.3 km/h 9.3 km/h 75 % 0.0 mm 0.0 W/m2 CLR
04:27 7.4 °C 3.3 °C 1019.2 hPa West 13.0 km/h 13.0 km/h 75 % 0.0 mm 0.0 W/m2 CLR
04:33 7.4 °C 3.1 °C 1019.2 hPa West 13.0 km/h 13.0 km/h 74 % 0.0 mm 0.0 W/m2 CLR
04:38 7.6 °C 3.0 °C 1019.2 hPa West 13.0 km/h 13.0 km/h 73 % 0.0 mm 0.0 W/m2 CLR
04:43 7.6 °C 3.1 °C 1019.2 hPa West 13.0 km/h 13.2 km/h 73 % 0.0 mm 0.0 W/m2 CLR
04:48 7.7 °C 3.0 °C 1019.2 hPa West 18.5 km/h 18.5 km/h 72 % 0.0 mm 0.0 W/m2 CLR
04:53 7.6 °C 2.9 °C 1019.2 hPa West 18.5 km/h 18.5 km/h 72 % 0.0 mm 0.0 W/m2 CLR
04:58 7.6 °C 2.9 °C 1019.2 hPa West 18.5 km/h 18.5 km/h 72 % 0.0 mm 0.0 W/m2 CLR
05:03 7.8 °C 3.1 °C 1019.2 hPa WNW 18.5 km/h 18.5 km/h 72 % 0.0 mm 0.0 W/m2 CLR
05:08 7.8 °C 3.1 °C 1019.2 hPa West 18.5 km/h 18.5 km/h 72 % 0.0 mm 0.0 W/m2 CLR
05:13 7.8 °C 3.1 °C 1019.2 hPa West 18.5 km/h 18.5 km/h 72 % 0.0 mm 0.0 W/m2 CLR
05:18 7.9 °C 3.2 °C 1019.5 hPa West 20.4 km/h 20.4 km/h 72 % 0.0 mm 0.0 W/m2 CLR
05:23 8.0 °C 3.1 °C 1019.5 hPa West 20.4 km/h 20.4 km/h 71 % 0.0 mm 0.0 W/m2 CLR
05:28 7.9 °C 3.2 °C 1019.5 hPa West 16.7 km/h 16.7 km/h 72 % 0.0 mm 0.0 W/m2 CLR
05:33 7.9 °C 3.2 °C 1019.5 hPa West 18.5 km/h 18.5 km/h 72 % 0.0 mm 0.0 W/m2 CLR
05:38 8.0 °C 3.3 °C 1019.5 hPa West 24.1 km/h 24.1 km/h 72 % 0.0 mm 0.0 W/m2 CLR
05:43 8.1 °C 3.4 °C 1019.5 hPa West 22.2 km/h 22.2 km/h 72 % 0.0 mm 0.0 W/m2 CLR
05:48 8.2 °C 3.4 °C 1019.5 hPa WNW 18.5 km/h 18.5 km/h 72 % 0.0 mm 0.0 W/m2 CLR
05:53 8.1 °C 3.4 °C 1019.5 hPa West 19.3 km/h 19.3 km/h 72 % 0.0 mm 0.0 W/m2 CLR
05:58 8.1 °C 3.3 °C 1019.5 hPa WNW 14.8 km/h 14.8 km/h 72 % 0.0 mm 0.0 W/m2 CLR
06:03 8.0 °C 3.4 °C 1019.5 hPa West 18.5 km/h 18.5 km/h 73 % 0.0 mm 0.0 W/m2 CLR
06:08 7.9 °C 3.4 °C 1019.5 hPa WSW 14.8 km/h 14.8 km/h 73 % 0.0 mm 0.0 W/m2 CLR
06:13 7.9 °C 3.3 °C 1019.5 hPa West 18.5 km/h 18.5 km/h 73 % 0.0 mm 0.0 W/m2 CLR
06:18 7.9 °C 3.3 °C 1019.5 hPa West 18.5 km/h 18.5 km/h 73 % 0.0 mm 0.0 W/m2 CLR
06:23 7.8 °C 3.3 °C 1019.5 hPa NW 11.1 km/h 11.1 km/h 73 % 0.0 mm 0.0 W/m2 CLR
06:28 7.4 °C 3.1 °C 1019.5 hPa WNW 11.1 km/h 11.1 km/h 74 % 0.0 mm 0.0 W/m2 CLR
06:33 7.1 °C 3.0 °C 1019.5 hPa WNW 9.3 km/h 9.3 km/h 75 % 0.0 mm 0.0 W/m2 CLR
06:38 7.1 °C 3.2 °C 1019.5 hPa Calm     76 % 0.0 mm 0.0 W/m2 CLR
06:43 7.2 °C 3.1 °C 1019.9 hPa WNW 13.0 km/h 13.0 km/h 75 % 0.0 mm 0.0 W/m2 CLR
06:48 7.4 °C 3.2 °C 1019.9 hPa Calm     75 % 0.0 mm 0.0 W/m2 CLR
06:53 7.2 °C 3.1 °C 1019.5 hPa Calm     75 % 0.0 mm 0.0 W/m2 CLR
06:58 6.9 °C 3.0 °C 1019.5 hPa Calm     76 % 0.0 mm 0.0 W/m2 CLR
07:03 6.8 °C 2.9 °C 1019.5 hPa Calm     76 % 0.0 mm 0.0 W/m2 CLR
07:08 6.7 °C 2.9 °C 1019.5 hPa Calm     77 % 0.0 mm 0.0 W/m2 CLR
07:13 6.7 °C 2.9 °C 1019.9 hPa Calm     77 % 0.0 mm 0.0 W/m2 CLR
07:18 6.7 °C 2.9 °C 1019.9 hPa Calm     77 % 0.0 mm 0.0 W/m2 CLR
07:23 6.6 °C 2.8 °C 1019.9 hPa Calm     77 % 0.0 mm 0.0 W/m2 OVC
07:28 6.3 °C 2.6 °C 1019.9 hPa Calm     77 % 0.0 mm 0.0 W/m2 OVC
07:33 6.1 °C 2.6 °C 1019.9 hPa Calm     78 % 0.0 mm 0.0 W/m2 OVC
07:38 6.1 °C 2.6 °C 1019.9 hPa Calm     78 % 0.0 mm 5.0 W/m2 OVC
07:43 6.1 °C 2.7 °C 1020.2 hPa Calm     79 % 0.0 mm 7.0 W/m2 BKN
07:48 6.1 °C 2.5 °C 1020.2 hPa Calm     78 % 0.0 mm 11.0 W/m2 BKN
07:53 6.0 °C 2.6 °C 1020.5 hPa Calm     79 % 0.0 mm 14.0 W/m2 BKN
07:58 6.1 °C 2.7 °C 1020.5 hPa Calm     79 % 0.0 mm 19.0 W/m2 BKN
08:03 6.3 °C 2.7 °C 1020.5 hPa Calm     78 % 0.0 mm 25.0 W/m2 BKN
08:08 6.4 °C 2.9 °C 1020.5 hPa Calm     78 % 0.0 mm 35.0 W/m2 BKN
08:13 6.6 °C 3.1 °C 1020.5 hPa Calm     78 % 0.0 mm 39.0 W/m2 BKN
08:18 6.7 °C 2.7 °C 1020.5 hPa Calm     76 % 0.0 mm 35.0 W/m2 BKN
08:23 6.4 °C 2.7 °C 1020.5 hPa Calm     77 % 0.0 mm 65.0 W/m2 SCT
08:28 6.3 °C 2.8 °C 1020.9 hPa Calm     78 % 0.0 mm 81.0 W/m2 FEW
08:33 6.5 °C 2.9 °C 1020.9 hPa Calm     78 % 0.0 mm 91.0 W/m2 CLR
08:38 6.6 °C 3.1 °C 1020.9 hPa Calm     78 % 0.0 mm 121.0 W/m2 FEW
08:43 6.9 °C 3.3 °C 1020.9 hPa Calm     78 % 0.0 mm 69.0 W/m2 CLR
08:48 7.1 °C 3.6 °C 1020.9 hPa Calm     78 % 0.0 mm 47.0 W/m2 FEW
08:53 7.1 °C 3.3 °C 1020.9 hPa Calm     77 % 0.0 mm 62.0 W/m2 SCT
08:58 7.0 °C 3.4 °C 1020.9 hPa Calm     78 % 0.0 mm 153.0 W/m2 FEW
09:03 7.2 °C 3.6 °C 1021.2 hPa Calm     78 % 0.0 mm 97.0 W/m2 CLR
09:08 7.3 °C 3.7 °C 1020.9 hPa Calm     78 % 0.0 mm 221.0 W/m2 CLR
09:13 7.8 °C 4.2 °C 1021.2 hPa Calm     78 % 0.0 mm 236.0 W/m2 CLR
09:18 8.3 °C 4.3 °C 1021.2 hPa SW 3.7 km/h   76 % 0.0 mm 253.0 W/m2 CLR
09:23 8.6 °C 4.2 °C 1021.2 hPa Calm     74 % 0.0 mm 269.0 W/m2 CLR
09:28 8.9 °C 4.6 °C 1020.9 hPa Calm     74 % 0.0 mm 283.0 W/m2 CLR
09:33 9.5 °C 4.7 °C 1021.2 hPa Calm     72 % 0.0 mm 299.0 W/m2 CLR
09:38 9.7 °C 4.3 °C 1020.9 hPa Calm     69 % 0.0 mm 313.0 W/m2 CLR
09:43 10.1 °C 4.4 °C 1021.2 hPa Calm     68 % 0.0 mm 325.0 W/m2 CLR
09:48 10.3 °C 4.1 °C 1021.2 hPa Calm     65 % 0.0 mm 343.0 W/m2 CLR
09:53 10.5 °C 3.9 °C 1021.2 hPa Calm     64 % 0.0 mm 355.0 W/m2 CLR
09:58 10.9 °C 4.6 °C 1020.9 hPa Calm     65 % 0.0 mm 367.0 W/m2 CLR
10:03 11.2 °C 4.2 °C 1020.9 hPa SSE 1.6 km/h 2.4 km/h 62 % 0.0 mm 380.0 W/m2 CLR
10:08 11.2 °C 4.2 °C 1020.9 hPa Calm     62 % 0.0 mm 396.0 W/m2 CLR
10:13 11.3 °C 4.8 °C 1020.9 hPa Calm     64 % 0.0 mm 406.0 W/m2 CLR
10:19 11.6 °C 4.7 °C 1021.2 hPa ESE 1.9 km/h   63 % 0.0 mm 420.0 W/m2 CLR
10:24 11.8 °C 4.7 °C 1021.2 hPa East 1.9 km/h   62 % 0.0 mm 432.0 W/m2 CLR
10:29 12.0 °C 4.9 °C 1021.2 hPa Calm     62 % 0.0 mm 446.0 W/m2 CLR
10:34 12.3 °C 5.2 °C 1021.2 hPa Calm     62 % 0.0 mm 459.0 W/m2 CLR
10:39 12.5 °C 5.4 °C 1021.2 hPa SW 6.4 km/h 6.4 km/h 62 % 0.0 mm 471.0 W/m2 CLR
10:44 12.7 °C 5.6 °C 1021.2 hPa Calm     62 % 0.0 mm 480.0 W/m2 CLR
10:49 13.0 °C 5.7 °C 1021.2 hPa Calm     61 % 0.0 mm 492.0 W/m2 CLR
10:54 13.2 °C 6.3 °C 1021.2 hPa NNW 14.8 km/h 14.8 km/h 63 % 0.0 mm 503.0 W/m2 CLR
10:59 13.0 °C 5.9 °C 1021.2 hPa NW 9.3 km/h 9.3 km/h 62 % 0.0 mm 513.0 W/m2 CLR
11:04 12.9 °C 6.1 °C 1021.2 hPa NW 18.5 km/h 18.5 km/h 63 % 0.0 mm 522.0 W/m2 CLR
11:09 12.9 °C 5.8 °C 1021.2 hPa West 14.8 km/h 14.8 km/h 62 % 0.0 mm 533.0 W/m2 CLR
11:14 13.2 °C 6.3 °C 1021.2 hPa NW 11.1 km/h 11.1 km/h 63 % 0.0 mm 541.0 W/m2 CLR
11:19 13.3 °C 5.9 °C 1021.2 hPa WNW 9.3 km/h 9.3 km/h 61 % 0.0 mm 550.0 W/m2 CLR
11:24 13.4 °C 6.3 °C 1021.2 hPa NW 24.1 km/h 24.1 km/h 62 % 0.0 mm 563.0 W/m2 CLR
11:29 13.5 °C 6.1 °C 1021.2 hPa West 22.2 km/h 22.2 km/h 61 % 0.0 mm 570.0 W/m2 CLR
11:34 13.6 °C 6.0 °C 1021.2 hPa WNW 25.9 km/h 25.9 km/h 60 % 0.0 mm 577.0 W/m2 CLR
11:39 13.7 °C 6.3 °C 1021.2 hPa NW 20.4 km/h 20.4 km/h 61 % 0.0 mm 585.0 W/m2 CLR
11:49 14.0 °C 6.3 °C 1020.9 hPa NW 25.9 km/h 25.9 km/h 60 % 0.0 mm 601.0 W/m2 CLR
11:54 14.1 °C 6.2 °C 1020.5 hPa NNW 18.5 km/h 18.5 km/h 59 % 0.0 mm 606.0 W/m2 CLR
11:59 14.2 °C 6.3 °C 1020.5 hPa WNW 29.6 km/h 29.6 km/h 59 % 0.0 mm 613.0 W/m2 CLR
12:04 14.3 °C 6.4 °C 1020.5 hPa WNW 22.5 km/h 22.5 km/h 59 % 0.0 mm 621.0 W/m2 CLR
12:09 14.4 °C 6.3 °C 1020.5 hPa NNW 16.7 km/h 16.7 km/h 58 % 0.0 mm 624.0 W/m2 CLR
12:14 14.6 °C 6.1 °C 1020.5 hPa NW 20.4 km/h 20.4 km/h 57 % 0.0 mm 631.0 W/m2 CLR
12:19 14.6 °C 5.9 °C 1020.5 hPa NW 20.4 km/h 20.4 km/h 56 % 0.0 mm 633.0 W/m2 CLR
12:24 14.6 °C 5.9 °C 1020.5 hPa NW 20.4 km/h 20.4 km/h 56 % 0.0 mm 640.0 W/m2 CLR
12:29 14.7 °C 6.0 °C 1020.5 hPa NW 1.9 km/h   56 % 0.0 mm 642.0 W/m2 CLR
12:34 14.8 °C 5.9 °C 1020.5 hPa NW 19.3 km/h 19.3 km/h 55 % 0.0 mm 645.0 W/m2 CLR
12:39 14.9 °C 5.7 °C 1020.5 hPa NNW 7.4 km/h 11.1 km/h 54 % 0.0 mm 649.0 W/m2 CLR
12:45 15.1 °C 5.9 °C 1020.2 hPa NW 20.4 km/h 20.4 km/h 54 % 0.0 mm 652.0 W/m2 CLR
12:50 15.2 °C 5.9 °C 1020.2 hPa NNW 18.5 km/h 18.5 km/h 54 % 0.0 mm 656.0 W/m2 CLR
12:55 15.3 °C 6.0 °C 1020.2 hPa NW 16.7 km/h 16.7 km/h 54 % 0.0 mm 656.0 W/m2 CLR
13:00 15.6 °C 6.0 °C 1019.9 hPa WNW 14.8 km/h 14.8 km/h 53 % 0.0 mm 657.0 W/m2 CLR
13:05 15.6 °C 5.8 °C 1019.9 hPa Calm   0.2 km/h 52 % 0.0 mm 659.0 W/m2 CLR
13:10 15.6 °C 5.5 °C 1019.5 hPa North 12.9 km/h 12.9 km/h 51 % 0.0 mm 661.0 W/m2 CLR
13:15 15.6 °C 5.8 °C 1019.5 hPa North 5.6 km/h 5.6 km/h 52 % 0.0 mm 659.0 W/m2 CLR
13:20 15.8 °C 5.9 °C 1019.5 hPa NNW 5.6 km/h 6.4 km/h 52 % 0.0 mm 661.0 W/m2 CLR
13:21 15.8 °C 5.9 °C 1019.5 hPa NNW 12.9 km/h 12.9 km/h 52 % 0.0 mm 661.0 W/m2 CLR
13:26 15.8 °C 6.0 °C 1019.5 hPa WNW 11.1 km/h 11.1 km/h 52 % 0.0 mm 659.0 W/m2 CLR
13:31 15.8 °C 5.7 °C 1019.5 hPa North 16.7 km/h 16.7 km/h 51 % 0.0 mm 656.0 W/m2 CLR
13:36 15.8 °C 5.9 °C 1019.5 hPa North 3.2 km/h 3.2 km/h 52 % 0.0 mm 657.0 W/m2 CLR
13:41 15.9 °C 6.1 °C 1019.5 hPa North 11.1 km/h 11.1 km/h 52 % 0.0 mm 656.0 W/m2 CLR
13:46 16.0 °C 5.8 °C 1019.5 hPa NNE 16.7 km/h 16.7 km/h 51 % 0.0 mm 652.0 W/m2 CLR
13:51 16.0 °C 6.4 °C 1019.2 hPa NNE 16.1 km/h 16.1 km/h 53 % 0.0 mm 649.0 W/m2 CLR
13:56 15.9 °C 5.5 °C 1019.2 hPa NNE 9.3 km/h 9.3 km/h 50 % 0.0 mm 647.0 W/m2 CLR
14:01 15.9 °C 5.5 °C 1019.2 hPa North 14.8 km/h 14.8 km/h 50 % 0.0 mm 643.0 W/m2 CLR
14:06 16.0 °C 5.8 °C 1019.2 hPa NNW 9.3 km/h 9.3 km/h 51 % 0.0 mm 640.0 W/m2 CLR
14:11 16.3 °C 6.1 °C 1019.2 hPa NNE 1.9 km/h 1.9 km/h 51 % 0.0 mm 635.0 W/m2 CLR
14:16 16.4 °C 5.7 °C 1018.8 hPa North 18.5 km/h 18.5 km/h 49 % 0.0 mm 631.0 W/m2 CLR
14:21 16.3 °C 5.6 °C 1018.8 hPa NE 11.1 km/h 11.1 km/h 49 % 0.0 mm 626.0 W/m2 CLR
14:26 16.3 °C 5.6 °C 1018.8 hPa North 16.7 km/h 16.7 km/h 49 % 0.0 mm 619.0 W/m2 CLR
14:31 16.4 °C 5.7 °C 1018.8 hPa NNW 3.7 km/h   49 % 0.0 mm 612.0 W/m2 CLR
14:36 16.6 °C 5.6 °C 1018.8 hPa NNE 1.9 km/h   48 % 0.0 mm 606.0 W/m2 CLR
14:41 16.8 °C 5.7 °C 1018.8 hPa NNE 3.7 km/h 3.7 km/h 48 % 0.0 mm 601.0 W/m2 CLR
14:46 16.9 °C 5.8 °C 1018.8 hPa NNE 3.7 km/h 3.7 km/h 48 % 0.0 mm 594.0 W/m2 CLR
14:51 16.9 °C 5.8 °C 1018.8 hPa North 5.6 km/h 5.6 km/h 48 % 0.0 mm 589.0 W/m2 CLR
14:56 17.0 °C 6.2 °C 1018.5 hPa ENE 1.9 km/h   49 % 0.0 mm 580.0 W/m2 CLR
15:01 17.2 °C 6.1 °C 1018.5 hPa NE 14.5 km/h 14.5 km/h 48 % 0.0 mm 573.0 W/m2 CLR
15:06 17.1 °C 6.0 °C 1018.5 hPa ENE 16.7 km/h 16.7 km/h 48 % 0.0 mm 563.0 W/m2 CLR
15:11 17.0 °C 6.2 °C 1018.5 hPa NNE 13.0 km/h 13.0 km/h 49 % 0.0 mm 552.0 W/m2 CLR
15:16 17.0 °C 5.9 °C 1018.5 hPa North 4.8 km/h 4.8 km/h 48 % 0.0 mm 543.0 W/m2 CLR
15:21 16.9 °C 6.1 °C 1018.5 hPa NNE 11.1 km/h 11.1 km/h 49 % 0.0 mm 534.0 W/m2 CLR
15:26 16.9 °C 5.8 °C 1018.5 hPa ENE 5.6 km/h   48 % 0.0 mm 526.0 W/m2 CLR
15:31 17.0 °C 6.2 °C 1018.2 hPa North 13.0 km/h 13.0 km/h 49 % 0.0 mm 513.0 W/m2 CLR
15:37 17.0 °C 6.2 °C 1018.5 hPa NE 3.7 km/h 3.7 km/h 49 % 0.0 mm 504.0 W/m2 CLR
15:41 17.0 °C 5.6 °C 1018.5 hPa NE 13.0 km/h 13.0 km/h 47 % 0.0 mm 494.0 W/m2 CLR
15:47 17.1 °C 5.9 °C 1018.2 hPa Calm     48 % 0.0 mm 482.0 W/m2 CLR
15:52 17.2 °C 5.8 °C 1018.5 hPa Calm     47 % 0.0 mm 471.0 W/m2 CLR
15:57 17.1 °C 5.4 °C 1018.5 hPa East 3.7 km/h 3.7 km/h 46 % 0.0 mm 457.0 W/m2 CLR
16:02 16.8 °C 5.4 °C 1018.2 hPa ENE 5.6 km/h 5.6 km/h 47 % 0.0 mm 445.0 W/m2 CLR
16:07 16.7 °C 5.9 °C 1018.2 hPa ESE 1.6 km/h 1.6 km/h 49 % 0.0 mm 432.0 W/m2 CLR
16:12 16.8 °C 6.1 °C 1018.2 hPa NE 14.5 km/h 14.5 km/h 49 % 0.0 mm 418.0 W/m2 CLR
16:17 16.9 °C 5.8 °C 1018.2 hPa NNW 14.8 km/h 14.8 km/h 48 % 0.0 mm 406.0 W/m2 CLR
16:22 16.9 °C 5.8 °C 1018.2 hPa Calm     48 % 0.0 mm 392.0 W/m2 CLR
16:27 17.0 °C 5.6 °C 1018.2 hPa Calm     47 % 0.0 mm 378.0 W/m2 CLR
16:32 17.1 °C 6.0 °C 1018.2 hPa Calm     48 % 0.0 mm 366.0 W/m2 CLR
16:37 17.2 °C 5.8 °C 1018.2 hPa NE 5.6 km/h 5.6 km/h 47 % 0.0 mm 350.0 W/m2 CLR
16:42 17.2 °C 5.8 °C 1018.2 hPa ENE 6.4 km/h 6.4 km/h 47 % 0.0 mm 338.0 W/m2 CLR
16:47 17.2 °C 5.8 °C 1018.2 hPa Calm     47 % 0.0 mm 323.0 W/m2 CLR
16:52 17.2 °C 6.1 °C 1018.2 hPa Calm     48 % 0.0 mm 309.0 W/m2 CLR
16:57 17.4 °C 6.0 °C 1018.2 hPa Calm     47 % 0.0 mm 294.0 W/m2 CLR
17:02 17.5 °C 5.7 °C 1018.2 hPa Calm     46 % 0.0 mm 279.0 W/m2 CLR
17:07 17.4 °C 5.7 °C 1018.2 hPa Calm     46 % 0.0 mm 265.0 W/m2 CLR
17:12 17.3 °C 5.6 °C 1018.2 hPa Calm     46 % 0.0 mm 250.0 W/m2 CLR
17:17 17.2 °C 5.8 °C 1018.2 hPa Calm     47 % 0.0 mm 230.0 W/m2 CLR
17:22 17.2 °C 5.8 °C 1017.8 hPa ENE 5.6 km/h 5.6 km/h 47 % 0.0 mm 213.0 W/m2 CLR
17:27 17.0 °C 5.3 °C 1017.8 hPa East 3.7 km/h 3.7 km/h 46 % 0.0 mm 195.0 W/m2 CLR
17:32 16.8 °C 5.1 °C 1017.8 hPa Calm     46 % 0.0 mm 179.0 W/m2 CLR
17:37 16.7 °C 5.1 °C 1017.8 hPa Calm     46 % 0.0 mm 162.0 W/m2 CLR
17:42 16.7 °C 5.6 °C 1017.8 hPa Calm     48 % 0.0 mm 141.0 W/m2 CLR
17:47 16.7 °C 5.3 °C 1017.8 hPa Calm     47 % 0.0 mm 125.0 W/m2 CLR
17:52 16.6 °C 5.2 °C 1017.8 hPa ENE 5.6 km/h 5.6 km/h 47 % 0.0 mm 109.0 W/m2 CLR
17:57 16.6 °C 5.2 °C 1017.8 hPa East 5.6 km/h 5.6 km/h 47 % 0.0 mm 95.0 W/m2 CLR
18:02 16.5 °C 5.2 °C 1017.8 hPa East 3.7 km/h 3.7 km/h 47 % 0.0 mm 77.0 W/m2 FEW
18:07 16.5 °C 5.2 °C 1018.2 hPa Calm     47 % 0.0 mm 56.0 W/m2 SCT
18:12 16.5 °C 5.2 °C 1017.8 hPa East 3.7 km/h 3.7 km/h 47 % 0.0 mm 51.0 W/m2 SCT
18:17 16.4 °C 5.3 °C 1018.2 hPa Calm     48 % 0.0 mm 40.0 W/m2 BKN
18:22 16.4 °C 5.4 °C 1018.2 hPa Calm     48 % 0.0 mm 28.0 W/m2 BKN
18:27 16.4 °C 5.4 °C 1018.2 hPa Calm     48 % 0.0 mm 18.0 W/m2 BKN
18:32 16.3 °C 5.2 °C 1018.2 hPa Calm     48 % 0.0 mm 12.0 W/m2 BKN
18:37 16.1 °C 5.6 °C 1018.2 hPa ESE 3.7 km/h 3.7 km/h 50 % 0.0 mm 11.0 W/m2 BKN
18:42 15.8 °C 6.3 °C 1018.2 hPa ESE 5.6 km/h 5.6 km/h 53 % 0.0 mm 9.0 W/m2 BKN
18:47 15.7 °C 6.7 °C 1018.2 hPa ESE 3.7 km/h 3.7 km/h 55 % 0.0 mm 5.0 W/m2 BKN
18:52 15.4 °C 6.4 °C 1018.2 hPa Calm     55 % 0.0 mm 0.0 W/m2 OVC
18:57 15.2 °C 6.7 °C 1018.2 hPa Calm     57 % 0.0 mm 0.0 W/m2 OVC
19:02 14.9 °C 6.5 °C 1018.2 hPa Calm     57 % 0.0 mm 0.0 W/m2 CLR
19:07 14.8 °C 6.6 °C 1018.5 hPa Calm     58 % 0.0 mm 0.0 W/m2 CLR
19:12 14.6 °C 6.7 °C 1018.5 hPa Calm     59 % 0.0 mm 0.0 W/m2 CLR
19:17 14.4 °C 6.8 °C 1018.5 hPa Calm     60 % 0.0 mm 0.0 W/m2 CLR
19:22 14.3 °C 6.8 °C 1018.5 hPa Calm     61 % 0.0 mm 0.0 W/m2 CLR
19:27 14.1 °C 6.9 °C 1018.5 hPa Calm     62 % 0.0 mm 0.0 W/m2 CLR
19:32 13.9 °C 7.0 °C 1018.5 hPa Calm     63 % 0.0 mm 0.0 W/m2 CLR
19:37 13.8 °C 6.9 °C 1018.5 hPa Calm     63 % 0.0 mm 0.0 W/m2 CLR
19:42 13.7 °C 6.8 °C 1018.8 hPa Calm     63 % 0.0 mm 0.0 W/m2 CLR
19:47 13.4 °C 6.9 °C 1018.5 hPa Calm     65 % 0.0 mm 0.0 W/m2 CLR
19:52 13.1 °C 6.9 °C 1018.8 hPa Calm     66 % 0.0 mm 0.0 W/m2 CLR
19:57 13.0 °C 6.8 °C 1018.8 hPa Calm     66 % 0.0 mm 0.0 W/m2 CLR
20:02 12.7 °C 6.5 °C 1018.8 hPa Calm     66 % 0.0 mm 0.0 W/m2 CLR
20:07 12.2 °C 6.3 °C 1018.8 hPa Calm     67 % 0.0 mm 0.0 W/m2 CLR
20:12 11.7 °C 6.2 °C 1018.8 hPa Calm     69 % 0.0 mm 0.0 W/m2 CLR
20:17 11.3 °C 6.1 °C 1018.8 hPa Calm     70 % 0.0 mm 0.0 W/m2 CLR
20:22 11.1 °C 6.3 °C 1018.8 hPa Calm     72 % 0.0 mm 0.0 W/m2 CLR
20:27 10.9 °C 6.3 °C 1018.8 hPa Calm     73 % 0.0 mm 0.0 W/m2 CLR
20:32 10.8 °C 6.4 °C 1018.8 hPa Calm     74 % 0.0 mm 0.0 W/m2 CLR
20:33 10.8 °C 6.4 °C 1018.8 hPa Calm     74 % 0.0 mm 0.0 W/m2 CLR
20:38 10.7 °C 6.1 °C 1019.2 hPa Calm     73 % 0.0 mm 0.0 W/m2 CLR
20:43 10.3 °C 5.7 °C 1019.2 hPa Calm     73 % 0.0 mm 0.0 W/m2 CLR
20:48 10.0 °C 5.6 °C 1019.2 hPa Calm     74 % 0.0 mm 0.0 W/m2 CLR
20:53 9.8 °C 5.6 °C 1019.2 hPa Calm     75 % 0.0 mm 0.0 W/m2 CLR
20:58 9.6 °C 5.6 °C 1019.2 hPa Calm     76 % 0.0 mm 0.0 W/m2 CLR
21:03 9.4 °C 5.6 °C 1019.2 hPa Calm     77 % 0.0 mm 0.0 W/m2 CLR
21:08 9.3 °C 5.7 °C 1019.2 hPa Calm     78 % 0.0 mm 0.0 W/m2 CLR
21:13 9.2 °C 5.6 °C 1019.2 hPa Calm     78 % 0.0 mm 0.0 W/m2 CLR
21:18 9.2 °C 5.6 °C 1019.5 hPa Calm     78 % 0.0 mm 0.0 W/m2 CLR
21:23 9.2 °C 5.6 °C 1019.5 hPa Calm     78 % 0.0 mm 0.0 W/m2 CLR
21:28 9.1 °C 5.5 °C 1019.9 hPa Calm     78 % 0.0 mm 0.0 W/m2 CLR
21:33 9.0 °C 5.6 °C 1019.9 hPa Calm     79 % 0.0 mm 0.0 W/m2 CLR
21:38 8.8 °C 5.4 °C 1019.5 hPa Calm     79 % 0.0 mm 0.0 W/m2 CLR
21:43 8.7 °C 5.2 °C 1019.5 hPa Calm     79 % 0.0 mm 0.0 W/m2 CLR
21:48 8.6 °C 5.1 °C 1019.9 hPa Calm     79 % 0.0 mm 0.0 W/m2 CLR
21:53 8.4 °C 5.1 °C 1019.9 hPa Calm     80 % 0.0 mm 0.0 W/m2 CLR
21:58 8.3 °C 5.3 °C 1019.9 hPa Calm     81 % 0.0 mm 0.0 W/m2 CLR
22:03 8.2 °C 5.2 °C 1019.9 hPa Calm     81 % 0.0 mm 0.0 W/m2 CLR
22:08 8.1 °C 5.0 °C 1019.9 hPa Calm     81 % 0.0 mm 0.0 W/m2 CLR
22:13 8.1 °C 5.2 °C 1020.2 hPa Calm     82 % 0.0 mm 0.0 W/m2 CLR
22:18 8.1 °C 5.2 °C 1019.9 hPa Calm     82 % 0.0 mm 0.0 W/m2 CLR
22:23 8.1 °C 5.4 °C 1019.9 hPa Calm     83 % 0.0 mm 0.0 W/m2 CLR
22:28 8.1 °C 5.2 °C 1019.9 hPa Calm     82 % 0.0 mm 0.0 W/m2 CLR
22:33 8.0 °C 5.1 °C 1020.2 hPa Calm     82 % 0.0 mm 0.0 W/m2 CLR
22:38 8.0 °C 5.3 °C 1020.2 hPa Calm     83 % 0.0 mm 0.0 W/m2 CLR
22:43 7.9 °C 5.1 °C 1020.2 hPa Calm     82 % 0.0 mm 0.0 W/m2 CLR
22:48 7.9 °C 5.2 °C 1020.2 hPa Calm     83 % 0.0 mm 0.0 W/m2 CLR
22:53 7.7 °C 4.8 °C 1020.2 hPa Calm     82 % 0.0 mm 0.0 W/m2 CLR
22:58 7.5 °C 4.9 °C 1019.9 hPa SW 5.6 km/h 5.6 km/h 84 % 0.0 mm 0.0 W/m2 CLR
23:03 7.4 °C 4.9 °C 1019.9 hPa Calm     84 % 0.0 mm 0.0 W/m2 CLR
23:08 7.5 °C 5.2 °C 1019.9 hPa Calm     85 % 0.0 mm 0.0 W/m2 CLR
23:13 7.6 °C 5.2 °C 1020.2 hPa Calm     85 % 0.0 mm 0.0 W/m2 CLR
23:18 7.6 °C 5.2 °C 1020.2 hPa Calm     85 % 0.0 mm 0.0 W/m2 CLR
23:23 7.6 °C 5.2 °C 1020.2 hPa Calm     85 % 0.0 mm 0.0 W/m2 CLR
23:28 7.6 °C 5.2 °C 1020.2 hPa Calm     85 % 0.0 mm 0.0 W/m2 CLR
23:33 7.6 °C 5.2 °C 1020.2 hPa Calm     85 % 0.0 mm 0.0 W/m2 CLR
23:38 7.6 °C 5.2 °C 1020.2 hPa Calm     85 % 0.0 mm 0.0 W/m2 CLR
23:43 7.6 °C 5.2 °C 1020.2 hPa Calm     85 % 0.0 mm 0.0 W/m2 CLR
23:48 7.4 °C 5.1 °C 1020.2 hPa Calm     85 % 0.0 mm 0.0 W/m2 CLR
23:53 7.3 °C 5.1 °C 1020.2 hPa Calm     86 % 0.0 mm 0.0 W/m2 CLR
23:58 7.5 °C 5.5 °C 1020.2 hPa Calm     87 % 0.0 mm 0.0 W/m2 CLR
Lo Temps de Massalio
Compliments of Weather Underground - 1.25 mb